sensor_id;sensor_type;location;lat;lon;timestamp;pressure;altitude;pressure_sealevel;temperature;humidity
39954;BME280;25631;51.516;-0.470;2023-01-28T00:01:08;102937.08;;;2.08;39.12
39954;BME280;25631;51.516;-0.470;2023-01-28T00:03:48;102938.12;;;2.08;39.01
39954;BME280;25631;51.516;-0.470;2023-01-28T00:06:25;102935.50;;;2.11;39.01
39954;BME280;25631;51.516;-0.470;2023-01-28T00:09:01;102932.49;;;2.35;39.07
39954;BME280;25631;51.516;-0.470;2023-01-28T00:11:38;102937.39;;;2.09;39.13
39954;BME280;25631;51.516;-0.470;2023-01-28T00:14:15;102934.96;;;2.08;39.11
39954;BME280;25631;51.516;-0.470;2023-01-28T00:16:51;102934.07;;;1.95;39.10
39954;BME280;25631;51.516;-0.470;2023-01-28T00:19:28;102940.36;;;2.18;39.04
39954;BME280;25631;51.516;-0.470;2023-01-28T00:22:04;102941.95;;;2.04;39.08
39954;BME280;25631;51.516;-0.470;2023-01-28T00:24:41;102943.29;;;1.93;39.06
39954;BME280;25631;51.516;-0.470;2023-01-28T00:27:17;102943.56;;;2.20;39.04
39954;BME280;25631;51.516;-0.470;2023-01-28T00:29:54;102940.77;;;2.10;38.99
39954;BME280;25631;51.516;-0.470;2023-01-28T00:32:30;102941.09;;;1.90;38.93
39954;BME280;25631;51.516;-0.470;2023-01-28T00:35:08;102938.23;;;1.78;39.06
39954;BME280;25631;51.516;-0.470;2023-01-28T00:37:45;102937.41;;;1.95;39.13
39954;BME280;25631;51.516;-0.470;2023-01-28T00:40:21;102938.46;;;1.94;39.11
39954;BME280;25631;51.516;-0.470;2023-01-28T00:42:58;102935.42;;;1.79;39.19
39954;BME280;25631;51.516;-0.470;2023-01-28T00:45:34;102935.62;;;2.04;39.23
39954;BME280;25631;51.516;-0.470;2023-01-28T00:48:11;102931.41;;;1.84;39.30
39954;BME280;25631;51.516;-0.470;2023-01-28T00:50:48;102926.22;;;2.05;39.35
39954;BME280;25631;51.516;-0.470;2023-01-28T00:53:24;102925.80;;;2.07;39.43
39954;BME280;25631;51.516;-0.470;2023-01-28T00:56:01;102920.95;;;2.07;39.55
39954;BME280;25631;51.516;-0.470;2023-01-28T00:58:38;102921.58;;;2.02;39.52
39954;BME280;25631;51.516;-0.470;2023-01-28T01:01:16;102918.38;;;2.07;39.61
39954;BME280;25631;51.516;-0.470;2023-01-28T01:03:54;102925.05;;;2.23;39.72
39954;BME280;25631;51.516;-0.470;2023-01-28T01:06:32;102927.01;;;2.44;39.75
39954;BME280;25631;51.516;-0.470;2023-01-28T01:09:10;102933.00;;;2.18;39.67
39954;BME280;25631;51.516;-0.470;2023-01-28T01:11:48;102938.47;;;2.27;39.62
39954;BME280;25631;51.516;-0.470;2023-01-28T01:14:24;102938.78;;;2.28;39.68
39954;BME280;25631;51.516;-0.470;2023-01-28T01:17:01;102936.52;;;2.26;39.66
39954;BME280;25631;51.516;-0.470;2023-01-28T01:19:37;102938.85;;;2.27;39.64
39954;BME280;25631;51.516;-0.470;2023-01-28T01:22:14;102942.46;;;2.34;39.60
39954;BME280;25631;51.516;-0.470;2023-01-28T01:24:50;102941.49;;;2.43;39.50
39954;BME280;25631;51.516;-0.470;2023-01-28T01:27:27;102937.67;;;2.26;39.50
39954;BME280;25631;51.516;-0.470;2023-01-28T01:30:05;102940.47;;;2.46;39.46
39954;BME280;25631;51.516;-0.470;2023-01-28T01:32:42;102935.11;;;2.22;39.46
39954;BME280;25631;51.516;-0.470;2023-01-28T01:35:18;102935.06;;;2.15;39.46
39954;BME280;25631;51.516;-0.470;2023-01-28T01:37:55;102930.01;;;2.17;39.40
39954;BME280;25631;51.516;-0.470;2023-01-28T01:40:31;102928.52;;;2.38;39.43
39954;BME280;25631;51.516;-0.470;2023-01-28T01:43:15;102926.11;;;2.35;39.38
39954;BME280;25631;51.516;-0.470;2023-01-28T01:45:56;102925.66;;;2.36;39.37
39954;BME280;25631;51.516;-0.470;2023-01-28T01:48:35;102919.07;;;2.31;39.43
39954;BME280;25631;51.516;-0.470;2023-01-28T01:51:14;102924.44;;;2.30;39.40
39954;BME280;25631;51.516;-0.470;2023-01-28T01:53:54;102924.01;;;2.33;39.30
39954;BME280;25631;51.516;-0.470;2023-01-28T01:56:34;102919.50;;;2.41;39.29
39954;BME280;25631;51.516;-0.470;2023-01-28T01:59:16;102923.04;;;2.49;39.27
39954;BME280;25631;51.516;-0.470;2023-01-28T02:01:57;102927.43;;;2.54;39.20
39954;BME280;25631;51.516;-0.470;2023-01-28T02:04:39;102928.46;;;2.47;39.12
39954;BME280;25631;51.516;-0.470;2023-01-28T02:07:18;102935.99;;;2.62;39.15
39954;BME280;25631;51.516;-0.470;2023-01-28T02:09:54;102934.68;;;2.75;39.06
39954;BME280;25631;51.516;-0.470;2023-01-28T02:12:33;102926.79;;;2.46;39.07
39954;BME280;25631;51.516;-0.470;2023-01-28T02:15:15;102930.35;;;2.76;39.12
39954;BME280;25631;51.516;-0.470;2023-01-28T02:17:53;102934.36;;;2.43;39.13
39954;BME280;25631;51.516;-0.470;2023-01-28T02:20:38;102941.50;;;2.84;39.10
39954;BME280;25631;51.516;-0.470;2023-01-28T02:23:34;102942.51;;;2.55;39.10
39954;BME280;25631;51.516;-0.470;2023-01-28T02:26:25;102941.06;;;2.63;38.94
39954;BME280;25631;51.516;-0.470;2023-01-28T02:29:12;102939.95;;;2.60;38.83
39954;BME280;25631;51.516;-0.470;2023-01-28T02:31:53;102935.77;;;2.69;38.75
39954;BME280;25631;51.516;-0.470;2023-01-28T02:34:37;102936.47;;;2.59;38.79
39954;BME280;25631;51.516;-0.470;2023-01-28T02:37:21;102938.52;;;2.33;38.76
39954;BME280;25631;51.516;-0.470;2023-01-28T02:40:04;102942.15;;;2.76;38.72
39954;BME280;25631;51.516;-0.470;2023-01-28T02:42:44;102939.71;;;2.55;38.77
39954;BME280;25631;51.516;-0.470;2023-01-28T02:45:24;102935.92;;;2.87;38.78
39954;BME280;25631;51.516;-0.470;2023-01-28T02:48:02;102936.89;;;2.57;38.77
39954;BME280;25631;51.516;-0.470;2023-01-28T02:50:44;102943.35;;;2.70;38.62
39954;BME280;25631;51.516;-0.470;2023-01-28T02:53:30;102943.24;;;2.62;38.48
39954;BME280;25631;51.516;-0.470;2023-01-28T02:56:18;102947.24;;;2.93;38.41
39954;BME280;25631;51.516;-0.470;2023-01-28T02:59:02;102951.08;;;2.64;38.21
39954;BME280;25631;51.516;-0.470;2023-01-28T03:01:46;102954.11;;;3.01;38.01
39954;BME280;25631;51.516;-0.470;2023-01-28T03:04:28;102958.93;;;2.69;38.05
39954;BME280;25631;51.516;-0.470;2023-01-28T03:07:08;102962.60;;;2.82;37.98
39954;BME280;25631;51.516;-0.470;2023-01-28T03:09:46;102964.66;;;2.73;37.96
39954;BME280;25631;51.516;-0.470;2023-01-28T03:12:26;102965.57;;;2.74;37.97
39954;BME280;25631;51.516;-0.470;2023-01-28T03:15:07;102966.33;;;2.77;37.88
39954;BME280;25631;51.516;-0.470;2023-01-28T03:17:48;102969.28;;;2.87;37.77
39954;BME280;25631;51.516;-0.470;2023-01-28T03:20:34;102967.54;;;2.97;37.57
39954;BME280;25631;51.516;-0.470;2023-01-28T03:23:16;102968.72;;;2.92;37.69
39954;BME280;25631;51.516;-0.470;2023-01-28T03:25:58;102969.45;;;2.40;37.74
39954;BME280;25631;51.516;-0.470;2023-01-28T03:28:37;102970.52;;;2.37;37.72
39954;BME280;25631;51.516;-0.470;2023-01-28T03:31:16;102970.35;;;2.86;37.68
39954;BME280;25631;51.516;-0.470;2023-01-28T03:33:56;102973.14;;;2.21;37.32
39954;BME280;25631;51.516;-0.470;2023-01-28T03:36:34;102974.91;;;2.27;37.20
39954;BME280;25631;51.516;-0.470;2023-01-28T03:39:10;102979.34;;;2.68;37.12
39954;BME280;25631;51.516;-0.470;2023-01-28T03:42:05;102979.01;;;2.58;37.18
39954;BME280;25631;51.516;-0.470;2023-01-28T03:44:42;102974.84;;;2.97;37.19
39954;BME280;25631;51.516;-0.470;2023-01-28T03:47:20;102976.85;;;2.54;37.25
39954;BME280;25631;51.516;-0.470;2023-01-28T03:49:58;102977.42;;;2.48;37.24
39954;BME280;25631;51.516;-0.470;2023-01-28T03:52:34;102979.72;;;2.55;37.11
39954;BME280;25631;51.516;-0.470;2023-01-28T03:55:11;102985.87;;;2.23;36.75
39954;BME280;25631;51.516;-0.470;2023-01-28T03:57:47;102982.56;;;2.50;36.72
39954;BME280;25631;51.516;-0.470;2023-01-28T04:00:24;102984.01;;;2.41;36.64
39954;BME280;25631;51.516;-0.470;2023-01-28T04:03:00;102979.50;;;2.19;36.65
39954;BME280;25631;51.516;-0.470;2023-01-28T04:05:37;102973.80;;;2.00;36.66
39954;BME280;25631;51.516;-0.470;2023-01-28T04:08:14;102977.61;;;2.04;36.61
39954;BME280;25631;51.516;-0.470;2023-01-28T04:10:51;102981.85;;;2.47;36.63
39954;BME280;25631;51.516;-0.470;2023-01-28T04:13:28;102981.72;;;2.51;36.67
39954;BME280;25631;51.516;-0.470;2023-01-28T04:16:05;102976.86;;;2.34;36.55
39954;BME280;25631;51.516;-0.470;2023-01-28T04:18:42;102975.45;;;2.30;36.54
39954;BME280;25631;51.516;-0.470;2023-01-28T04:21:18;102975.25;;;2.49;36.45
39954;BME280;25631;51.516;-0.470;2023-01-28T04:23:55;102975.49;;;2.75;36.44
39954;BME280;25631;51.516;-0.470;2023-01-28T04:26:32;102972.76;;;2.30;36.51
39954;BME280;25631;51.516;-0.470;2023-01-28T04:29:08;102973.14;;;2.50;36.58
39954;BME280;25631;51.516;-0.470;2023-01-28T04:31:45;102975.40;;;2.25;36.62
39954;BME280;25631;51.516;-0.470;2023-01-28T04:34:23;102969.78;;;2.82;36.58
39954;BME280;25631;51.516;-0.470;2023-01-28T04:37:00;102970.35;;;2.42;36.43
39954;BME280;25631;51.516;-0.470;2023-01-28T04:39:36;102963.55;;;2.26;36.20
39954;BME280;25631;51.516;-0.470;2023-01-28T04:42:13;102962.27;;;3.06;36.08
39954;BME280;25631;51.516;-0.470;2023-01-28T04:44:49;102960.36;;;2.88;35.68
39954;BME280;25631;51.516;-0.470;2023-01-28T04:47:26;102962.35;;;2.62;35.47
39954;BME280;25631;51.516;-0.470;2023-01-28T04:50:04;102958.02;;;2.80;35.49
39954;BME280;25631;51.516;-0.470;2023-01-28T04:52:40;102957.85;;;2.88;35.59
39954;BME280;25631;51.516;-0.470;2023-01-28T04:55:17;102958.99;;;2.48;35.49
39954;BME280;25631;51.516;-0.470;2023-01-28T04:57:54;102960.99;;;2.73;35.51
39954;BME280;25631;51.516;-0.470;2023-01-28T05:00:30;102965.34;;;2.41;35.52
39954;BME280;25631;51.516;-0.470;2023-01-28T05:03:07;102967.46;;;2.86;35.64
39954;BME280;25631;51.516;-0.470;2023-01-28T05:05:43;102966.70;;;2.89;35.77
39954;BME280;25631;51.516;-0.470;2023-01-28T05:08:20;102958.79;;;2.60;35.70
39954;BME280;25631;51.516;-0.470;2023-01-28T05:10:56;102951.32;;;2.60;35.80
39954;BME280;25631;51.516;-0.470;2023-01-28T05:13:33;102952.55;;;2.44;35.86
39954;BME280;25631;51.516;-0.470;2023-01-28T05:16:09;102949.60;;;2.68;35.86
39954;BME280;25631;51.516;-0.470;2023-01-28T05:18:46;102949.19;;;2.73;35.96
39954;BME280;25631;51.516;-0.470;2023-01-28T05:21:22;102953.64;;;2.78;35.95
39954;BME280;25631;51.516;-0.470;2023-01-28T05:23:59;102950.49;;;2.56;36.00
39954;BME280;25631;51.516;-0.470;2023-01-28T05:26:35;102951.20;;;2.56;36.12
39954;BME280;25631;51.516;-0.470;2023-01-28T05:29:12;102950.46;;;2.51;36.08
39954;BME280;25631;51.516;-0.470;2023-01-28T05:31:49;102956.29;;;2.73;35.82
39954;BME280;25631;51.516;-0.470;2023-01-28T05:34:25;102953.36;;;2.61;35.79
39954;BME280;25631;51.516;-0.470;2023-01-28T05:37:02;102956.75;;;2.85;35.92
39954;BME280;25631;51.516;-0.470;2023-01-28T05:39:38;102959.08;;;2.55;35.79
39954;BME280;25631;51.516;-0.470;2023-01-28T05:42:15;102964.14;;;2.97;35.65
39954;BME280;25631;51.516;-0.470;2023-01-28T05:44:51;102965.61;;;2.91;35.65
39954;BME280;25631;51.516;-0.470;2023-01-28T05:47:28;102964.66;;;2.51;35.66
39954;BME280;25631;51.516;-0.470;2023-01-28T05:50:06;102962.40;;;2.56;35.75
39954;BME280;25631;51.516;-0.470;2023-01-28T05:52:43;102963.45;;;2.68;35.83
39954;BME280;25631;51.516;-0.470;2023-01-28T05:55:20;102959.65;;;2.54;35.71
39954;BME280;25631;51.516;-0.470;2023-01-28T05:57:56;102961.09;;;2.40;35.86
39954;BME280;25631;51.516;-0.470;2023-01-28T06:00:33;102964.25;;;2.58;36.00
39954;BME280;25631;51.516;-0.470;2023-01-28T06:03:09;102971.33;;;2.39;36.13
39954;BME280;25631;51.516;-0.470;2023-01-28T06:05:47;102978.29;;;2.51;36.13
39954;BME280;25631;51.516;-0.470;2023-01-28T06:08:23;102979.88;;;2.44;36.04
39954;BME280;25631;51.516;-0.470;2023-01-28T06:11:00;102977.39;;;2.73;36.03
39954;BME280;25631;51.516;-0.470;2023-01-28T06:13:36;102980.54;;;2.54;36.10
39954;BME280;25631;51.516;-0.470;2023-01-28T06:16:13;102986.62;;;2.71;36.19
39954;BME280;25631;51.516;-0.470;2023-01-28T06:18:49;102984.13;;;2.45;36.20
39954;BME280;25631;51.516;-0.470;2023-01-28T06:21:26;102985.58;;;2.77;36.22
39954;BME280;25631;51.516;-0.470;2023-01-28T06:24:02;102981.96;;;2.82;36.25
39954;BME280;25631;51.516;-0.470;2023-01-28T06:26:39;102981.58;;;2.34;36.22
39954;BME280;25631;51.516;-0.470;2023-01-28T06:29:15;102980.15;;;2.62;36.31
39954;BME280;25631;51.516;-0.470;2023-01-28T06:31:52;102977.34;;;2.37;36.36
39954;BME280;25631;51.516;-0.470;2023-01-28T06:34:28;102979.44;;;2.83;36.47
39954;BME280;25631;51.516;-0.470;2023-01-28T06:37:05;102981.98;;;2.44;36.55
39954;BME280;25631;51.516;-0.470;2023-01-28T06:39:42;102979.74;;;2.67;36.60
39954;BME280;25631;51.516;-0.470;2023-01-28T06:42:19;102980.16;;;2.72;36.63
39954;BME280;25631;51.516;-0.470;2023-01-28T06:44:55;102975.09;;;2.71;36.73
39954;BME280;25631;51.516;-0.470;2023-01-28T06:47:32;102982.13;;;2.65;36.82
39954;BME280;25631;51.516;-0.470;2023-01-28T06:50:09;102985.00;;;2.59;36.89
39954;BME280;25631;51.516;-0.470;2023-01-28T06:52:46;102984.26;;;2.71;36.96
39954;BME280;25631;51.516;-0.470;2023-01-28T06:55:23;102980.91;;;2.90;36.97
39954;BME280;25631;51.516;-0.470;2023-01-28T06:57:59;102982.43;;;2.42;36.99
39954;BME280;25631;51.516;-0.470;2023-01-28T07:00:36;102979.54;;;2.89;37.00
39954;BME280;25631;51.516;-0.470;2023-01-28T07:03:12;102983.56;;;2.60;37.03
39954;BME280;25631;51.516;-0.470;2023-01-28T07:05:49;102991.80;;;2.60;36.95
39954;BME280;25631;51.516;-0.470;2023-01-28T07:08:25;102997.38;;;2.43;36.79
39954;BME280;25631;51.516;-0.470;2023-01-28T07:11:02;102997.48;;;2.64;36.80
39954;BME280;25631;51.516;-0.470;2023-01-28T07:13:39;102995.62;;;2.61;36.95
39954;BME280;25631;51.516;-0.470;2023-01-28T07:16:15;102995.07;;;2.38;36.89
39954;BME280;25631;51.516;-0.470;2023-01-28T07:18:52;103003.65;;;2.82;36.84
39954;BME280;25631;51.516;-0.470;2023-01-28T07:21:29;103003.59;;;2.55;36.87
39954;BME280;25631;51.516;-0.470;2023-01-28T07:24:06;102998.37;;;2.63;36.93
39954;BME280;25631;51.516;-0.470;2023-01-28T07:26:42;103001.30;;;2.85;36.98
39954;BME280;25631;51.516;-0.470;2023-01-28T07:29:19;103006.61;;;2.50;36.94
39954;BME280;25631;51.516;-0.470;2023-01-28T07:31:55;103003.11;;;2.64;36.88
39954;BME280;25631;51.516;-0.470;2023-01-28T07:34:32;102996.11;;;2.37;36.83
39954;BME280;25631;51.516;-0.470;2023-01-28T07:37:08;102994.14;;;2.68;36.67
39954;BME280;25631;51.516;-0.470;2023-01-28T07:39:45;102996.57;;;2.74;36.72
39954;BME280;25631;51.516;-0.470;2023-01-28T07:42:21;103003.07;;;2.60;36.92
39954;BME280;25631;51.516;-0.470;2023-01-28T07:44:58;103010.16;;;2.75;36.90
39954;BME280;25631;51.516;-0.470;2023-01-28T07:47:34;103012.02;;;2.58;36.89
39954;BME280;25631;51.516;-0.470;2023-01-28T07:50:11;103012.60;;;2.44;36.88
39954;BME280;25631;51.516;-0.470;2023-01-28T07:52:47;103007.57;;;3.06;36.83
39954;BME280;25631;51.516;-0.470;2023-01-28T07:55:24;103006.82;;;2.71;36.84
39954;BME280;25631;51.516;-0.470;2023-01-28T07:58:02;103004.34;;;2.49;36.91
39954;BME280;25631;51.516;-0.470;2023-01-28T08:00:38;103008.01;;;2.99;36.95
39954;BME280;25631;51.516;-0.470;2023-01-28T08:03:15;103005.25;;;2.50;36.97
39954;BME280;25631;51.516;-0.470;2023-01-28T08:05:53;103006.96;;;2.79;37.04
39954;BME280;25631;51.516;-0.470;2023-01-28T08:08:30;103002.11;;;2.71;37.08
39954;BME280;25631;51.516;-0.470;2023-01-28T08:11:07;103003.44;;;2.73;37.11
39954;BME280;25631;51.516;-0.470;2023-01-28T08:13:45;103005.08;;;2.94;37.16
39954;BME280;25631;51.516;-0.470;2023-01-28T08:16:22;103005.86;;;2.69;37.22
39954;BME280;25631;51.516;-0.470;2023-01-28T08:18:59;103006.65;;;2.84;37.24
39954;BME280;25631;51.516;-0.470;2023-01-28T08:21:36;103007.54;;;2.72;37.21
39954;BME280;25631;51.516;-0.470;2023-01-28T08:24:12;103003.18;;;3.02;37.21
39954;BME280;25631;51.516;-0.470;2023-01-28T08:26:49;103004.87;;;2.58;37.19
39954;BME280;25631;51.516;-0.470;2023-01-28T08:29:25;103007.19;;;2.54;37.05
39954;BME280;25631;51.516;-0.470;2023-01-28T08:32:02;103004.81;;;2.93;36.99
39954;BME280;25631;51.516;-0.470;2023-01-28T08:34:38;102997.96;;;2.63;36.92
39954;BME280;25631;51.516;-0.470;2023-01-28T08:37:15;102994.14;;;2.68;36.71
39954;BME280;25631;51.516;-0.470;2023-01-28T08:39:51;103000.02;;;2.73;36.57
39954;BME280;25631;51.516;-0.470;2023-01-28T08:42:29;103002.06;;;2.48;36.59
39954;BME280;25631;51.516;-0.470;2023-01-28T08:45:07;103000.83;;;2.54;36.60
39954;BME280;25631;51.516;-0.470;2023-01-28T08:47:48;103009.87;;;2.45;36.61
39954;BME280;25631;51.516;-0.470;2023-01-28T08:50:27;103010.14;;;2.51;36.45
39954;BME280;25631;51.516;-0.470;2023-01-28T08:53:08;103010.96;;;2.40;36.40
39954;BME280;25631;51.516;-0.470;2023-01-28T08:55:46;103017.46;;;2.91;36.38
39954;BME280;25631;51.516;-0.470;2023-01-28T08:58:23;103018.15;;;2.65;36.36
39954;BME280;25631;51.516;-0.470;2023-01-28T09:01:04;103022.30;;;2.59;36.22
39954;BME280;25631;51.516;-0.470;2023-01-28T09:03:41;103029.40;;;2.76;36.13
39954;BME280;25631;51.516;-0.470;2023-01-28T09:06:18;103025.97;;;2.68;36.10
39954;BME280;25631;51.516;-0.470;2023-01-28T09:08:56;103028.42;;;2.68;36.16
39954;BME280;25631;51.516;-0.470;2023-01-28T09:11:38;103026.60;;;2.73;36.13
39954;BME280;25631;51.516;-0.470;2023-01-28T09:14:14;103032.27;;;2.80;36.10
39954;BME280;25631;51.516;-0.470;2023-01-28T09:16:51;103033.67;;;3.08;36.05
39954;BME280;25631;51.516;-0.470;2023-01-28T09:19:29;103033.06;;;2.81;35.90
39954;BME280;25631;51.516;-0.470;2023-01-28T09:22:06;103038.58;;;2.78;35.97
39954;BME280;25631;51.516;-0.470;2023-01-28T09:24:42;103037.31;;;2.89;36.08
39954;BME280;25631;51.516;-0.470;2023-01-28T09:27:19;103043.66;;;2.82;36.22
39954;BME280;25631;51.516;-0.470;2023-01-28T09:29:55;103049.01;;;3.06;36.24
39954;BME280;25631;51.516;-0.470;2023-01-28T09:32:32;103050.66;;;3.18;36.24
39954;BME280;25631;51.516;-0.470;2023-01-28T09:35:08;103058.22;;;2.96;36.29
39954;BME280;25631;51.516;-0.470;2023-01-28T09:37:45;103051.50;;;3.21;36.24
39954;BME280;25631;51.516;-0.470;2023-01-28T09:40:29;103048.87;;;3.37;36.16
39954;BME280;25631;51.516;-0.470;2023-01-28T09:43:28;103051.56;;;3.19;36.13
39954;BME280;25631;51.516;-0.470;2023-01-28T09:46:11;103060.18;;;3.23;36.21
39954;BME280;25631;51.516;-0.470;2023-01-28T09:48:51;103054.85;;;3.57;36.17
39954;BME280;25631;51.516;-0.470;2023-01-28T09:51:32;103043.17;;;3.55;36.13
39954;BME280;25631;51.516;-0.470;2023-01-28T09:54:19;103038.78;;;3.37;36.16
39954;BME280;25631;51.516;-0.470;2023-01-28T09:57:04;103035.74;;;3.26;36.12
39954;BME280;25631;51.516;-0.470;2023-01-28T09:59:43;103038.39;;;3.15;36.29
39954;BME280;25631;51.516;-0.470;2023-01-28T10:02:32;103041.27;;;3.13;36.32
39954;BME280;25631;51.516;-0.470;2023-01-28T10:05:16;103046.93;;;3.24;36.38
39954;BME280;25631;51.516;-0.470;2023-01-28T10:08:04;103049.79;;;3.45;36.32
39954;BME280;25631;51.516;-0.470;2023-01-28T10:10:47;103050.58;;;3.56;36.29
39954;BME280;25631;51.516;-0.470;2023-01-28T10:13:30;103041.60;;;3.48;36.19
39954;BME280;25631;51.516;-0.470;2023-01-28T10:16:18;103038.53;;;3.36;36.01
39954;BME280;25631;51.516;-0.470;2023-01-28T10:19:01;103036.62;;;3.69;36.04
39954;BME280;25631;51.516;-0.470;2023-01-28T10:21:42;103031.79;;;3.74;35.94
39954;BME280;25631;51.516;-0.470;2023-01-28T10:24:27;103034.68;;;3.89;35.91
39954;BME280;25631;51.516;-0.470;2023-01-28T10:27:10;103031.29;;;3.45;35.80
39954;BME280;25631;51.516;-0.470;2023-01-28T10:29:50;103035.46;;;3.61;35.79
39954;BME280;25631;51.516;-0.470;2023-01-28T10:32:30;103035.66;;;4.03;35.93
39954;BME280;25631;51.516;-0.470;2023-01-28T10:35:07;103037.53;;;3.85;35.89
39954;BME280;25631;51.516;-0.470;2023-01-28T10:37:44;103025.61;;;3.75;35.72
39954;BME280;25631;51.516;-0.470;2023-01-28T10:40:20;103018.23;;;3.60;35.62
39954;BME280;25631;51.516;-0.470;2023-01-28T10:42:57;103014.62;;;3.47;35.73
39954;BME280;25631;51.516;-0.470;2023-01-28T10:45:39;103012.39;;;3.81;35.70
39954;BME280;25631;51.516;-0.470;2023-01-28T10:48:22;103011.26;;;3.82;35.51
39954;BME280;25631;51.516;-0.470;2023-01-28T10:51:00;102998.96;;;3.74;35.54
39954;BME280;25631;51.516;-0.470;2023-01-28T10:53:40;102987.72;;;3.72;35.59
39954;BME280;25631;51.516;-0.470;2023-01-28T10:56:23;102985.17;;;4.02;35.56
39954;BME280;25631;51.516;-0.470;2023-01-28T10:59:02;102979.17;;;3.75;35.43
39954;BME280;25631;51.516;-0.470;2023-01-28T11:01:44;102975.44;;;3.70;35.40
39954;BME280;25631;51.516;-0.470;2023-01-28T11:04:23;102973.17;;;3.74;35.38
39954;BME280;25631;51.516;-0.470;2023-01-28T11:07:03;102966.01;;;3.72;35.38
39954;BME280;25631;51.516;-0.470;2023-01-28T11:09:45;102953.27;;;3.89;35.09
39954;BME280;25631;51.516;-0.470;2023-01-28T11:12:23;102946.89;;;3.57;35.21
39954;BME280;25631;51.516;-0.470;2023-01-28T11:15:02;102942.41;;;3.58;35.30
39954;BME280;25631;51.516;-0.470;2023-01-28T11:17:49;102938.52;;;3.53;35.25
39954;BME280;25631;51.516;-0.470;2023-01-28T11:20:28;102944.59;;;3.70;35.27
39954;BME280;25631;51.516;-0.470;2023-01-28T11:23:18;102951.21;;;3.99;35.45
39954;BME280;25631;51.516;-0.470;2023-01-28T11:26:00;102951.28;;;4.01;35.28
39954;BME280;25631;51.516;-0.470;2023-01-28T11:28:40;102953.01;;;4.11;35.13
39954;BME280;25631;51.516;-0.470;2023-01-28T11:31:19;102951.58;;;4.50;35.16
39954;BME280;25631;51.516;-0.470;2023-01-28T11:33:58;102953.08;;;4.32;35.17
39954;BME280;25631;51.516;-0.470;2023-01-28T11:36:35;102957.41;;;4.41;35.09
39954;BME280;25631;51.516;-0.470;2023-01-28T11:39:18;102958.59;;;4.70;35.10
39954;BME280;25631;51.516;-0.470;2023-01-28T11:42:10;102961.04;;;4.76;34.84
39954;BME280;25631;51.516;-0.470;2023-01-28T11:44:48;102962.31;;;4.94;34.45
39954;BME280;25631;51.516;-0.470;2023-01-28T11:47:34;102962.59;;;4.89;34.12
39954;BME280;25631;51.516;-0.470;2023-01-28T11:50:29;102959.52;;;4.86;33.98
39954;BME280;25631;51.516;-0.470;2023-01-28T11:53:29;102964.44;;;4.72;34.07
39954;BME280;25631;51.516;-0.470;2023-01-28T11:56:23;102966.97;;;4.76;33.93
39954;BME280;25631;51.516;-0.470;2023-01-28T11:59:18;102970.66;;;4.93;34.25
39954;BME280;25631;51.516;-0.470;2023-01-28T12:02:05;102972.37;;;4.64;34.34
39954;BME280;25631;51.516;-0.470;2023-01-28T12:05:00;102974.27;;;4.81;34.28
39954;BME280;25631;51.516;-0.470;2023-01-28T12:07:46;102972.24;;;4.60;34.14
39954;BME280;25631;51.516;-0.470;2023-01-28T12:10:34;102973.85;;;4.43;34.30
39954;BME280;25631;51.516;-0.470;2023-01-28T12:13:28;102969.11;;;4.49;34.17
39954;BME280;25631;51.516;-0.470;2023-01-28T12:16:50;102973.80;;;4.56;34.25
39954;BME280;25631;51.516;-0.470;2023-01-28T12:19:51;102981.25;;;4.51;34.31
39954;BME280;25631;51.516;-0.470;2023-01-28T12:23:04;102973.85;;;4.62;34.49
39954;BME280;25631;51.516;-0.470;2023-01-28T12:25:55;102965.67;;;4.73;34.35
39954;BME280;25631;51.516;-0.470;2023-01-28T12:28:47;102965.92;;;4.76;33.98
39954;BME280;25631;51.516;-0.470;2023-01-28T12:31:37;102960.03;;;4.67;34.02
39954;BME280;25631;51.516;-0.470;2023-01-28T12:34:35;102960.38;;;4.36;34.08
39954;BME280;25631;51.516;-0.470;2023-01-28T12:37:24;102970.61;;;4.60;33.68
39954;BME280;25631;51.516;-0.470;2023-01-28T12:40:13;102968.85;;;4.86;33.65
39954;BME280;25631;51.516;-0.470;2023-01-28T12:42:57;102960.02;;;4.86;33.43
39954;BME280;25631;51.516;-0.470;2023-01-28T12:45:39;102953.35;;;4.72;33.59
39954;BME280;25631;51.516;-0.470;2023-01-28T12:48:19;102952.95;;;4.37;33.78
39954;BME280;25631;51.516;-0.470;2023-01-28T12:51:02;102953.98;;;4.61;33.76
39954;BME280;25631;51.516;-0.470;2023-01-28T12:53:42;102953.55;;;4.81;33.57
39954;BME280;25631;51.516;-0.470;2023-01-28T12:56:27;102940.68;;;4.80;33.60
39954;BME280;25631;51.516;-0.470;2023-01-28T12:59:11;102935.75;;;4.98;33.55
39954;BME280;25631;51.516;-0.470;2023-01-28T13:01:52;102934.68;;;4.63;33.83
39954;BME280;25631;51.516;-0.470;2023-01-28T13:04:36;102926.31;;;4.80;33.92
39954;BME280;25631;51.516;-0.470;2023-01-28T13:07:19;102920.20;;;4.51;33.80
39954;BME280;25631;51.516;-0.470;2023-01-28T13:10:03;102918.11;;;4.90;33.90
39954;BME280;25631;51.516;-0.470;2023-01-28T13:12:41;102916.43;;;4.84;33.82
39954;BME280;25631;51.516;-0.470;2023-01-28T13:15:18;102906.10;;;4.87;33.93
39954;BME280;25631;51.516;-0.470;2023-01-28T13:17:57;102901.87;;;5.15;33.82
39954;BME280;25631;51.516;-0.470;2023-01-28T13:20:46;102901.70;;;4.87;33.90
39954;BME280;25631;51.516;-0.470;2023-01-28T13:23:25;102898.56;;;5.31;33.77
39954;BME280;25631;51.516;-0.470;2023-01-28T13:26:10;102896.67;;;5.01;33.91
39954;BME280;25631;51.516;-0.470;2023-01-28T13:28:47;102901.40;;;4.89;33.83
39954;BME280;25631;51.516;-0.470;2023-01-28T13:31:24;102902.06;;;5.10;33.70
39954;BME280;25631;51.516;-0.470;2023-01-28T13:34:34;102901.23;;;5.21;33.53
39954;BME280;25631;51.516;-0.470;2023-01-28T13:37:20;102895.47;;;5.26;33.60
39954;BME280;25631;51.516;-0.470;2023-01-28T13:40:05;102897.05;;;5.21;33.64
39954;BME280;25631;51.516;-0.470;2023-01-28T13:42:43;102892.39;;;5.29;33.65
39954;BME280;25631;51.516;-0.470;2023-01-28T13:45:22;102893.68;;;5.09;33.57
39954;BME280;25631;51.516;-0.470;2023-01-28T13:48:05;102895.98;;;5.00;33.57
39954;BME280;25631;51.516;-0.470;2023-01-28T13:50:57;102893.63;;;4.71;33.49
39954;BME280;25631;51.516;-0.470;2023-01-28T13:53:40;102899.25;;;4.95;33.52
39954;BME280;25631;51.516;-0.470;2023-01-28T13:56:22;102895.23;;;5.21;33.65